sensor_id;sensor_type;location;lat;lon;timestamp;P1;durP1;ratioP1;P2;durP2;ratioP2
13240;SDS011;6687;47.790;7.322;2023-02-28T06:11:39;1.15;;;0.50;;
13240;SDS011;6687;47.790;7.322;2023-02-28T06:14:06;0.30;;;0.30;;
13240;SDS011;6687;47.790;7.322;2023-02-28T06:16:34;0.50;;;0.30;;
13240;SDS011;6687;47.790;7.322;2023-02-28T06:19:03;7.67;;;0.90;;
13240;SDS011;6687;47.790;7.322;2023-02-28T06:21:30;0.53;;;0.53;;
13240;SDS011;6687;47.790;7.322;2023-02-28T06:23:57;0.27;;;0.27;;
13240;SDS011;6687;47.790;7.322;2023-02-28T06:26:25;0.30;;;0.10;;
13240;SDS011;6687;47.790;7.322;2023-02-28T06:28:53;0.30;;;0.13;;
13240;SDS011;6687;47.790;7.322;2023-02-28T06:31:20;0.73;;;0.63;;
13240;SDS011;6687;47.790;7.322;2023-02-28T06:33:48;0.10;;;0.10;;
13240;SDS011;6687;47.790;7.322;2023-02-28T06:36:16;0.20;;;0.17;;
13240;SDS011;6687;47.790;7.322;2023-02-28T06:38:43;0.20;;;0.20;;
13240;SDS011;6687;47.790;7.322;2023-02-28T06:41:10;0.40;;;0.40;;
13240;SDS011;6687;47.790;7.322;2023-02-28T06:43:38;0.30;;;0.30;;
13240;SDS011;6687;47.790;7.322;2023-02-28T06:46:09;1.13;;;0.60;;
13240;SDS011;6687;47.790;7.322;2023-02-28T06:48:38;0.23;;;0.23;;
13240;SDS011;6687;47.790;7.322;2023-02-28T06:51:06;0.30;;;0.30;;
13240;SDS011;6687;47.790;7.322;2023-02-28T06:53:33;0.63;;;0.63;;
13240;SDS011;6687;47.790;7.322;2023-02-28T06:56:03;0.40;;;0.40;;
13240;SDS011;6687;47.790;7.322;2023-02-28T06:58:30;0.40;;;0.40;;
13240;SDS011;6687;47.790;7.322;2023-02-28T07:00:57;0.10;;;0.10;;
13240;SDS011;6687;47.790;7.322;2023-02-28T07:03:25;0.40;;;0.27;;
13240;SDS011;6687;47.790;7.322;2023-02-28T07:05:52;0.33;;;0.33;;
13240;SDS011;6687;47.790;7.322;2023-02-28T07:08:21;0.40;;;0.40;;
13240;SDS011;6687;47.790;7.322;2023-02-28T07:10:51;0.20;;;0.20;;
13240;SDS011;6687;47.790;7.322;2023-02-28T07:13:18;0.33;;;0.23;;
13240;SDS011;6687;47.790;7.322;2023-02-28T07:15:52;0.93;;;0.40;;
13240;SDS011;6687;47.790;7.322;2023-02-28T07:18:19;0.97;;;0.53;;
13240;SDS011;6687;47.790;7.322;2023-02-28T07:20:48;0.20;;;0.20;;
13240;SDS011;6687;47.790;7.322;2023-02-28T07:23:14;0.30;;;0.30;;
13240;SDS011;6687;47.790;7.322;2023-02-28T07:25:41;0.47;;;0.40;;
13240;SDS011;6687;47.790;7.322;2023-02-28T07:28:08;0.30;;;0.30;;
13240;SDS011;6687;47.790;7.322;2023-02-28T07:30:35;0.30;;;0.30;;
13240;SDS011;6687;47.790;7.322;2023-02-28T07:33:02;0.37;;;0.37;;
13240;SDS011;6687;47.790;7.322;2023-02-28T07:35:29;0.40;;;0.40;;
13240;SDS011;6687;47.790;7.322;2023-02-28T07:37:58;0.20;;;0.20;;
13240;SDS011;6687;47.790;7.322;2023-02-28T07:40:25;0.37;;;0.37;;
13240;SDS011;6687;47.790;7.322;2023-02-28T07:42:52;0.60;;;0.60;;
13240;SDS011;6687;47.790;7.322;2023-02-28T07:45:19;0.20;;;0.20;;
13240;SDS011;6687;47.790;7.322;2023-02-28T07:47:46;0.10;;;0.10;;
13240;SDS011;6687;47.790;7.322;2023-02-28T07:50:14;0.40;;;0.40;;
13240;SDS011;6687;47.790;7.322;2023-02-28T07:52:42;0.73;;;0.73;;
13240;SDS011;6687;47.790;7.322;2023-02-28T07:55:10;0.07;;;0.07;;
13240;SDS011;6687;47.790;7.322;2023-02-28T07:57:38;0.43;;;0.40;;
13240;SDS011;6687;47.790;7.322;2023-02-28T08:00:06;1.05;;;0.63;;
13240;SDS011;6687;47.790;7.322;2023-02-28T08:02:37;0.20;;;0.20;;
13240;SDS011;6687;47.790;7.322;2023-02-28T08:05:05;0.50;;;0.23;;
13240;SDS011;6687;47.790;7.322;2023-02-28T08:07:32;0.20;;;0.20;;
13240;SDS011;6687;47.790;7.322;2023-02-28T08:09:59;0.63;;;0.63;;
13240;SDS011;6687;47.790;7.322;2023-02-28T08:12:27;0.43;;;0.40;;
13240;SDS011;6687;47.790;7.322;2023-02-28T08:14:54;0.53;;;0.53;;
13240;SDS011;6687;47.790;7.322;2023-02-28T08:17:21;0.53;;;0.53;;
13240;SDS011;6687;47.790;7.322;2023-02-28T08:19:48;0.45;;;0.45;;
13240;SDS011;6687;47.790;7.322;2023-02-28T08:22:15;0.57;;;0.37;;
13240;SDS011;6687;47.790;7.322;2023-02-28T08:24:42;0.77;;;0.77;;
13240;SDS011;6687;47.790;7.322;2023-02-28T08:27:09;0.50;;;0.50;;
13240;SDS011;6687;47.790;7.322;2023-02-28T08:29:38;0.50;;;0.50;;
13240;SDS011;6687;47.790;7.322;2023-02-28T08:32:05;0.20;;;0.20;;
13240;SDS011;6687;47.790;7.322;2023-02-28T08:34:32;0.33;;;0.33;;
13240;SDS011;6687;47.790;7.322;2023-02-28T08:36:59;0.57;;;0.57;;
13240;SDS011;6687;47.790;7.322;2023-02-28T08:39:25;0.60;;;0.60;;
13240;SDS011;6687;47.790;7.322;2023-02-28T08:41:52;1.60;;;1.33;;
13240;SDS011;6687;47.790;7.322;2023-02-28T08:44:19;0.50;;;0.50;;
13240;SDS011;6687;47.790;7.322;2023-02-28T08:46:47;0.67;;;0.67;;
13240;SDS011;6687;47.790;7.322;2023-02-28T08:49:14;1.53;;;0.73;;
13240;SDS011;6687;47.790;7.322;2023-02-28T08:51:41;0.37;;;0.37;;
13240;SDS011;6687;47.790;7.322;2023-02-28T08:54:08;0.77;;;0.77;;
13240;SDS011;6687;47.790;7.322;2023-02-28T08:56:37;0.30;;;0.30;;
13240;SDS011;6687;47.790;7.322;2023-02-28T08:59:05;0.20;;;0.20;;
13240;SDS011;6687;47.790;7.322;2023-02-28T09:01:32;0.33;;;0.30;;
13240;SDS011;6687;47.790;7.322;2023-02-28T09:04:00;0.50;;;0.23;;
13240;SDS011;6687;47.790;7.322;2023-02-28T09:06:27;0.73;;;0.53;;
13240;SDS011;6687;47.790;7.322;2023-02-28T09:08:55;0.40;;;0.40;;
13240;SDS011;6687;47.790;7.322;2023-02-28T09:11:24;1.00;;;0.33;;
13240;SDS011;6687;47.790;7.322;2023-02-28T09:13:52;0.73;;;0.70;;
13240;SDS011;6687;47.790;7.322;2023-02-28T09:16:20;0.20;;;0.20;;
13240;SDS011;6687;47.790;7.322;2023-02-28T09:18:47;1.23;;;1.13;;
13240;SDS011;6687;47.790;7.322;2023-02-28T09:21:16;0.40;;;0.40;;
13240;SDS011;6687;47.790;7.322;2023-02-28T09:23:45;0.20;;;0.20;;
13240;SDS011;6687;47.790;7.322;2023-02-28T09:26:13;1.92;;;0.93;;
13240;SDS011;6687;47.790;7.322;2023-02-28T09:28:41;0.90;;;0.67;;
13240;SDS011;6687;47.790;7.322;2023-02-28T09:31:10;0.88;;;0.82;;
13240;SDS011;6687;47.790;7.322;2023-02-28T09:33:39;0.60;;;0.60;;
13240;SDS011;6687;47.790;7.322;2023-02-28T09:36:06;3.03;;;0.90;;
13240;SDS011;6687;47.790;7.322;2023-02-28T09:38:35;1.43;;;0.67;;
13240;SDS011;6687;47.790;7.322;2023-02-28T09:41:02;0.63;;;0.60;;
13240;SDS011;6687;47.790;7.322;2023-02-28T09:43:37;0.43;;;0.43;;
13240;SDS011;6687;47.790;7.322;2023-02-28T09:46:08;0.87;;;0.87;;
13240;SDS011;6687;47.790;7.322;2023-02-28T09:48:45;1.17;;;0.90;;
13240;SDS011;6687;47.790;7.322;2023-02-28T09:51:16;0.87;;;0.57;;
13240;SDS011;6687;47.790;7.322;2023-02-28T09:53:57;1.38;;;1.27;;
13240;SDS011;6687;47.790;7.322;2023-02-28T09:56:25;0.73;;;0.30;;
13240;SDS011;6687;47.790;7.322;2023-02-28T09:58:58;1.43;;;1.33;;
13240;SDS011;6687;47.790;7.322;2023-02-28T10:01:28;1.20;;;0.73;;
13240;SDS011;6687;47.790;7.322;2023-02-28T10:04:03;1.23;;;1.13;;
13240;SDS011;6687;47.790;7.322;2023-02-28T10:06:36;1.25;;;0.75;;
13240;SDS011;6687;47.790;7.322;2023-02-28T10:09:13;1.03;;;1.03;;
13240;SDS011;6687;47.790;7.322;2023-02-28T10:11:45;0.80;;;0.80;;
13240;SDS011;6687;47.790;7.322;2023-02-28T10:14:14;0.43;;;0.43;;
13240;SDS011;6687;47.790;7.322;2023-02-28T10:16:43;0.45;;;0.45;;
13240;SDS011;6687;47.790;7.322;2023-02-28T10:19:17;0.80;;;0.55;;
13240;SDS011;6687;47.790;7.322;2023-02-28T10:21:49;0.47;;;0.47;;
13240;SDS011;6687;47.790;7.322;2023-02-28T10:24:26;0.57;;;0.57;;
13240;SDS011;6687;47.790;7.322;2023-02-28T10:26:59;1.83;;;0.63;;
13240;SDS011;6687;47.790;7.322;2023-02-28T10:29:27;0.68;;;0.68;;
13240;SDS011;6687;47.790;7.322;2023-02-28T10:31:58;0.57;;;0.40;;
13240;SDS011;6687;47.790;7.322;2023-02-28T10:34:27;1.33;;;1.23;;
13240;SDS011;6687;47.790;7.322;2023-02-28T10:36:54;0.30;;;0.30;;
13240;SDS011;6687;47.790;7.322;2023-02-28T10:39:38;1.30;;;0.70;;
13240;SDS011;6687;47.790;7.322;2023-02-28T10:42:18;0.90;;;0.90;;
13240;SDS011;6687;47.790;7.322;2023-02-28T10:44:47;1.13;;;1.02;;
13240;SDS011;6687;47.790;7.322;2023-02-28T10:47:14;0.80;;;0.80;;
13240;SDS011;6687;47.790;7.322;2023-02-28T10:49:46;0.47;;;0.47;;
13240;SDS011;6687;47.790;7.322;2023-02-28T10:52:14;0.77;;;0.63;;
13240;SDS011;6687;47.790;7.322;2023-02-28T10:55:15;0.88;;;0.60;;
13240;SDS011;6687;47.790;7.322;2023-02-28T10:57:47;0.63;;;0.63;;
13240;SDS011;6687;47.790;7.322;2023-02-28T11:00:16;1.20;;;1.10;;
13240;SDS011;6687;47.790;7.322;2023-02-28T11:02:44;0.70;;;0.70;;
13240;SDS011;6687;47.790;7.322;2023-02-28T11:05:27;0.90;;;0.90;;
13240;SDS011;6687;47.790;7.322;2023-02-28T11:07:56;0.70;;;0.70;;
13240;SDS011;6687;47.790;7.322;2023-02-28T11:10:31;0.80;;;0.73;;
13240;SDS011;6687;47.790;7.322;2023-02-28T11:13:00;1.75;;;1.00;;
13240;SDS011;6687;47.790;7.322;2023-02-28T11:15:29;1.60;;;0.57;;
13240;SDS011;6687;47.790;7.322;2023-02-28T11:17:58;0.55;;;0.55;;
13240;SDS011;6687;47.790;7.322;2023-02-28T11:20:27;0.60;;;0.60;;
13240;SDS011;6687;47.790;7.322;2023-02-28T11:22:56;0.65;;;0.55;;
13240;SDS011;6687;47.790;7.322;2023-02-28T11:25:24;0.63;;;0.63;;
13240;SDS011;6687;47.790;7.322;2023-02-28T11:27:54;0.80;;;0.80;;
13240;SDS011;6687;47.790;7.322;2023-02-28T11:30:30;0.63;;;0.63;;
13240;SDS011;6687;47.790;7.322;2023-02-28T11:33:18;0.73;;;0.70;;
13240;SDS011;6687;47.790;7.322;2023-02-28T11:35:48;0.98;;;0.93;;
13240;SDS011;6687;47.790;7.322;2023-02-28T11:38:17;0.70;;;0.70;;
13240;SDS011;6687;47.790;7.322;2023-02-28T11:40:47;1.25;;;1.15;;
13240;SDS011;6687;47.790;7.322;2023-02-28T11:43:22;1.15;;;1.05;;
13240;SDS011;6687;47.790;7.322;2023-02-28T11:46:07;1.08;;;1.08;;
13240;SDS011;6687;47.790;7.322;2023-02-28T11:48:47;0.75;;;0.75;;
13240;SDS011;6687;47.790;7.322;2023-02-28T11:51:26;1.33;;;1.23;;
13240;SDS011;6687;47.790;7.322;2023-02-28T11:54:08;0.65;;;0.65;;
13240;SDS011;6687;47.790;7.322;2023-02-28T11:56:49;0.65;;;0.65;;
13240;SDS011;6687;47.790;7.322;2023-02-28T12:02:20;0.80;;;0.80;;
13240;SDS011;6687;47.790;7.322;2023-02-28T12:04:52;1.17;;;0.90;;
13240;SDS011;6687;47.790;7.322;2023-02-28T12:07:37;1.60;;;1.02;;
13240;SDS011;6687;47.790;7.322;2023-02-28T12:10:17;0.85;;;0.85;;
13240;SDS011;6687;47.790;7.322;2023-02-28T12:12:49;0.63;;;0.57;;
13240;SDS011;6687;47.790;7.322;2023-02-28T12:18:28;0.90;;;0.90;;
13240;SDS011;6687;47.790;7.322;2023-02-28T12:21:09;0.50;;;0.50;;
13240;SDS011;6687;47.790;7.322;2023-02-28T12:23:55;0.88;;;0.80;;
13240;SDS011;6687;47.790;7.322;2023-02-28T12:26:36;0.85;;;0.85;;
13240;SDS011;6687;47.790;7.322;2023-02-28T12:29:09;1.48;;;0.95;;
13240;SDS011;6687;47.790;7.322;2023-02-28T12:31:44;0.60;;;0.60;;
13240;SDS011;6687;47.790;7.322;2023-02-28T12:34:15;0.68;;;0.68;;
13240;SDS011;6687;47.790;7.322;2023-02-28T12:36:45;0.60;;;0.60;;
13240;SDS011;6687;47.790;7.322;2023-02-28T12:39:15;0.80;;;0.80;;
13240;SDS011;6687;47.790;7.322;2023-02-28T12:41:45;0.80;;;0.80;;
13240;SDS011;6687;47.790;7.322;2023-02-28T12:44:17;1.05;;;0.95;;
13240;SDS011;6687;47.790;7.322;2023-02-28T12:46:50;0.98;;;0.77;;
13240;SDS011;6687;47.790;7.322;2023-02-28T12:49:22;0.47;;;0.40;;
13240;SDS011;6687;47.790;7.322;2023-02-28T12:51:52;0.55;;;0.45;;
13240;SDS011;6687;47.790;7.322;2023-02-28T12:54:20;0.55;;;0.55;;
13240;SDS011;6687;47.790;7.322;2023-02-28T12:56:53;1.13;;;1.10;;
13240;SDS011;6687;47.790;7.322;2023-02-28T12:59:25;1.17;;;0.68;;
13240;SDS011;6687;47.790;7.322;2023-02-28T13:02:02;1.33;;;0.95;;
13240;SDS011;6687;47.790;7.322;2023-02-28T13:07:57;1.23;;;1.13;;
13240;SDS011;6687;47.790;7.322;2023-02-28T13:10:42;1.38;;;0.80;;
13240;SDS011;6687;47.790;7.322;2023-02-28T13:13:14;0.60;;;0.60;;
13240;SDS011;6687;47.790;7.322;2023-02-28T13:15:56;0.68;;;0.68;;
13240;SDS011;6687;47.790;7.322;2023-02-28T13:18:31;0.70;;;0.70;;
13240;SDS011;6687;47.790;7.322;2023-02-28T13:21:01;1.08;;;0.77;;
13240;SDS011;6687;47.790;7.322;2023-02-28T13:23:36;0.45;;;0.45;;
13240;SDS011;6687;47.790;7.322;2023-02-28T13:26:05;0.50;;;0.50;;
13240;SDS011;6687;47.790;7.322;2023-02-28T13:31:31;0.73;;;0.73;;
13240;SDS011;6687;47.790;7.322;2023-02-28T13:34:12;1.00;;;0.90;;
13240;SDS011;6687;47.790;7.322;2023-02-28T13:36:40;1.35;;;1.25;;
13240;SDS011;6687;47.790;7.322;2023-02-28T13:45:19;0.50;;;0.50;;
13240;SDS011;6687;47.790;7.322;2023-02-28T13:47:51;0.90;;;0.90;;
13240;SDS011;6687;47.790;7.322;2023-02-28T13:50:23;0.88;;;0.88;;
13240;SDS011;6687;47.790;7.322;2023-02-28T13:53:01;0.98;;;0.98;;
13240;SDS011;6687;47.790;7.322;2023-02-28T13:55:45;0.63;;;0.63;;
13240;SDS011;6687;47.790;7.322;2023-02-28T13:58:27;0.38;;;0.38;;
13240;SDS011;6687;47.790;7.322;2023-02-28T14:01:11;0.80;;;0.70;;
13240;SDS011;6687;47.790;7.322;2023-02-28T14:04:06;1.23;;;0.80;;
13240;SDS011;6687;47.790;7.322;2023-02-28T14:06:47;0.95;;;0.90;;
13240;SDS011;6687;47.790;7.322;2023-02-28T14:09:18;0.57;;;0.57;;
13240;SDS011;6687;47.790;7.322;2023-02-28T14:11:49;1.05;;;1.05;;
13240;SDS011;6687;47.790;7.322;2023-02-28T14:17:24;0.52;;;0.52;;
13240;SDS011;6687;47.790;7.322;2023-02-28T14:19:52;0.55;;;0.55;;
13240;SDS011;6687;47.790;7.322;2023-02-28T14:22:25;0.50;;;0.45;;
13240;SDS011;6687;47.790;7.322;2023-02-28T14:25:11;1.75;;;0.65;;
13240;SDS011;6687;47.790;7.322;2023-02-28T14:27:48;0.90;;;0.90;;
13240;SDS011;6687;47.790;7.322;2023-02-28T14:36:16;0.70;;;0.70;;
13240;SDS011;6687;47.790;7.322;2023-02-28T14:38:48;1.08;;;1.08;;
13240;SDS011;6687;47.790;7.322;2023-02-28T14:41:20;0.77;;;0.77;;
13240;SDS011;6687;47.790;7.322;2023-02-28T14:43:53;0.40;;;0.40;;
13240;SDS011;6687;47.790;7.322;2023-02-28T14:46:22;1.15;;;1.05;;
13240;SDS011;6687;47.790;7.322;2023-02-28T14:48:52;0.50;;;0.50;;
13240;SDS011;6687;47.790;7.322;2023-02-28T14:51:20;1.15;;;0.40;;
13240;SDS011;6687;47.790;7.322;2023-02-28T14:53:51;0.80;;;0.80;;
13240;SDS011;6687;47.790;7.322;2023-02-28T14:56:33;1.00;;;0.93;;
13240;SDS011;6687;47.790;7.322;2023-02-28T14:59:02;0.50;;;0.50;;
13240;SDS011;6687;47.790;7.322;2023-02-28T15:01:30;1.50;;;1.00;;
13240;SDS011;6687;47.790;7.322;2023-02-28T15:04:00;2.05;;;0.70;;
13240;SDS011;6687;47.790;7.322;2023-02-28T15:06:29;1.10;;;1.00;;
13240;SDS011;6687;47.790;7.322;2023-02-28T15:09:08;1.10;;;1.10;;
13240;SDS011;6687;47.790;7.322;2023-02-28T15:11:36;1.70;;;1.60;;
13240;SDS011;6687;47.790;7.322;2023-02-28T15:14:05;0.88;;;0.82;;
13240;SDS011;6687;47.790;7.322;2023-02-28T15:16:32;1.10;;;0.82;;
13240;SDS011;6687;47.790;7.322;2023-02-28T15:19:04;0.73;;;0.57;;
13240;SDS011;6687;47.790;7.322;2023-02-28T15:21:34;0.57;;;0.57;;
13240;SDS011;6687;47.790;7.322;2023-02-28T15:24:04;0.35;;;0.35;;
13240;SDS011;6687;47.790;7.322;2023-02-28T15:26:39;0.82;;;0.82;;
13240;SDS011;6687;47.790;7.322;2023-02-28T15:29:11;0.80;;;0.80;;
13240;SDS011;6687;47.790;7.322;2023-02-28T15:31:43;1.73;;;1.20;;
13240;SDS011;6687;47.790;7.322;2023-02-28T15:34:18;0.70;;;0.70;;
13240;SDS011;6687;47.790;7.322;2023-02-28T15:36:47;0.80;;;0.80;;
13240;SDS011;6687;47.790;7.322;2023-02-28T15:39:19;1.02;;;0.93;;
13240;SDS011;6687;47.790;7.322;2023-02-28T15:41:47;1.17;;;1.00;;
13240;SDS011;6687;47.790;7.322;2023-02-28T15:44:16;0.82;;;0.70;;
13240;SDS011;6687;47.790;7.322;2023-02-28T15:46:50;1.10;;;0.98;;
13240;SDS011;6687;47.790;7.322;2023-02-28T15:49:21;1.23;;;1.13;;
13240;SDS011;6687;47.790;7.322;2023-02-28T15:51:49;1.38;;;1.27;;
13240;SDS011;6687;47.790;7.322;2023-02-28T15:54:20;0.50;;;0.50;;
13240;SDS011;6687;47.790;7.322;2023-02-28T15:56:51;1.20;;;1.10;;
13240;SDS011;6687;47.790;7.322;2023-02-28T15:59:21;2.17;;;0.98;;
13240;SDS011;6687;47.790;7.322;2023-02-28T16:02:11;0.73;;;0.73;;
13240;SDS011;6687;47.790;7.322;2023-02-28T16:04:56;1.30;;;0.57;;
13240;SDS011;6687;47.790;7.322;2023-02-28T16:07:24;1.23;;;0.63;;
13240;SDS011;6687;47.790;7.322;2023-02-28T16:09:53;1.10;;;1.00;;
13240;SDS011;6687;47.790;7.322;2023-02-28T16:12:20;0.70;;;0.70;;
13240;SDS011;6687;47.790;7.322;2023-02-28T16:14:51;0.80;;;0.65;;
13240;SDS011;6687;47.790;7.322;2023-02-28T16:17:20;1.23;;;1.23;;
13240;SDS011;6687;47.790;7.322;2023-02-28T16:19:47;1.17;;;1.10;;
13240;SDS011;6687;47.790;7.322;2023-02-28T16:22:14;0.80;;;0.80;;
13240;SDS011;6687;47.790;7.322;2023-02-28T16:24:41;0.65;;;0.65;;
13240;SDS011;6687;47.790;7.322;2023-02-28T16:27:11;0.82;;;0.55;;
13240;SDS011;6687;47.790;7.322;2023-02-28T16:29:44;0.77;;;0.77;;
13240;SDS011;6687;47.790;7.322;2023-02-28T16:32:11;0.80;;;0.80;;
13240;SDS011;6687;47.790;7.322;2023-02-28T16:34:40;0.93;;;0.85;;
13240;SDS011;6687;47.790;7.322;2023-02-28T16:37:09;0.85;;;0.85;;
13240;SDS011;6687;47.790;7.322;2023-02-28T16:39:38;0.90;;;0.90;;
13240;SDS011;6687;47.790;7.322;2023-02-28T16:42:04;1.33;;;0.90;;
13240;SDS011;6687;47.790;7.322;2023-02-28T16:44:33;1.33;;;1.23;;
13240;SDS011;6687;47.790;7.322;2023-02-28T16:47:02;0.88;;;0.88;;
13240;SDS011;6687;47.790;7.322;2023-02-28T16:49:30;0.60;;;0.60;;
13240;SDS011;6687;47.790;7.322;2023-02-28T16:51:57;0.88;;;0.88;;
13240;SDS011;6687;47.790;7.322;2023-02-28T16:54:24;1.40;;;0.88;;
13240;SDS011;6687;47.790;7.322;2023-02-28T16:56:51;0.57;;;0.35;;
13240;SDS011;6687;47.790;7.322;2023-02-28T16:59:19;1.90;;;0.98;;
13240;SDS011;6687;47.790;7.322;2023-02-28T17:01:50;0.40;;;0.35;;
13240;SDS011;6687;47.790;7.322;2023-02-28T17:04:17;1.02;;;1.02;;
13240;SDS011;6687;47.790;7.322;2023-02-28T17:06:44;0.55;;;0.50;;
13240;SDS011;6687;47.790;7.322;2023-02-28T17:09:14;0.75;;;0.73;;
13240;SDS011;6687;47.790;7.322;2023-02-28T17:11:42;0.80;;;0.55;;
13240;SDS011;6687;47.790;7.322;2023-02-28T17:14:10;1.05;;;0.98;;
13240;SDS011;6687;47.790;7.322;2023-02-28T17:16:37;0.68;;;0.68;;
13240;SDS011;6687;47.790;7.322;2023-02-28T17:19:09;1.15;;;0.85;;
13240;SDS011;6687;47.790;7.322;2023-02-28T17:21:38;0.40;;;0.40;;
13240;SDS011;6687;47.790;7.322;2023-02-28T17:24:07;0.50;;;0.50;;
13240;SDS011;6687;47.790;7.322;2023-02-28T17:26:37;0.50;;;0.50;;
13240;SDS011;6687;47.790;7.322;2023-02-28T17:29:05;1.20;;;0.73;;
13240;SDS011;6687;47.790;7.322;2023-02-28T17:31:32;0.50;;;0.50;;
13240;SDS011;6687;47.790;7.322;2023-02-28T17:34:03;0.70;;;0.70;;
13240;SDS011;6687;47.790;7.322;2023-02-28T17:36:31;2.03;;;1.17;;
13240;SDS011;6687;47.790;7.322;2023-02-28T17:39:00;1.90;;;1.13;;
13240;SDS011;6687;47.790;7.322;2023-02-28T17:41:27;1.83;;;1.23;;
13240;SDS011;6687;47.790;7.322;2023-02-28T17:43:55;1.00;;;0.95;;
13240;SDS011;6687;47.790;7.322;2023-02-28T17:46:23;0.90;;;0.75;;
13240;SDS011;6687;47.790;7.322;2023-02-28T17:48:51;0.93;;;0.93;;
13240;SDS011;6687;47.790;7.322;2023-02-28T17:51:19;1.20;;;1.00;;
13240;SDS011;6687;47.790;7.322;2023-02-28T17:53:49;1.25;;;1.10;;
13240;SDS011;6687;47.790;7.322;2023-02-28T17:56:17;1.08;;;1.08;;
13240;SDS011;6687;47.790;7.322;2023-02-28T17:58:45;1.08;;;0.98;;
13240;SDS011;6687;47.790;7.322;2023-02-28T18:01:12;1.33;;;1.23;;
13240;SDS011;6687;47.790;7.322;2023-02-28T18:03:39;1.83;;;1.38;;
13240;SDS011;6687;47.790;7.322;2023-02-28T18:06:06;0.77;;;0.77;;
13240;SDS011;6687;47.790;7.322;2023-02-28T18:08:36;1.40;;;1.30;;
13240;SDS011;6687;47.790;7.322;2023-02-28T18:11:04;0.52;;;0.52;;
13240;SDS011;6687;47.790;7.322;2023-02-28T18:13:31;0.90;;;0.90;;
13240;SDS011;6687;47.790;7.322;2023-02-28T18:15:58;0.75;;;0.75;;
13240;SDS011;6687;47.790;7.322;2023-02-28T18:18:25;0.57;;;0.57;;
13240;SDS011;6687;47.790;7.322;2023-02-28T18:20:51;1.45;;;1.05;;
13240;SDS011;6687;47.790;7.322;2023-02-28T18:23:18;0.65;;;0.65;;
13240;SDS011;6687;47.790;7.322;2023-02-28T18:25:45;1.10;;;1.10;;
13240;SDS011;6687;47.790;7.322;2023-02-28T18:28:13;2.33;;;1.23;;
13240;SDS011;6687;47.790;7.322;2023-02-28T18:30:40;1.25;;;1.15;;
13240;SDS011;6687;47.790;7.322;2023-02-28T18:33:07;2.20;;;1.13;;
13240;SDS011;6687;47.790;7.322;2023-02-28T18:35:33;1.27;;;1.17;;
13240;SDS011;6687;47.790;7.322;2023-02-28T18:38:01;0.82;;;0.82;;
13240;SDS011;6687;47.790;7.322;2023-02-28T18:40:29;1.30;;;1.20;;
13240;SDS011;6687;47.790;7.322;2023-02-28T18:42:56;0.90;;;0.85;;
13240;SDS011;6687;47.790;7.322;2023-02-28T18:45:25;0.85;;;0.85;;
13240;SDS011;6687;47.790;7.322;2023-02-28T18:47:52;1.98;;;1.33;;
13240;SDS011;6687;47.790;7.322;2023-02-28T18:50:18;1.45;;;1.35;;
13240;SDS011;6687;47.790;7.322;2023-02-28T18:52:45;1.98;;;1.40;;
13240;SDS011;6687;47.790;7.322;2023-02-28T18:55:12;1.77;;;1.10;;
13240;SDS011;6687;47.790;7.322;2023-02-28T18:57:42;1.23;;;1.10;;
13240;SDS011;6687;47.790;7.322;2023-02-28T19:00:10;2.00;;;1.30;;
13240;SDS011;6687;47.790;7.322;2023-02-28T19:02:39;1.60;;;1.50;;
13240;SDS011;6687;47.790;7.322;2023-02-28T19:05:07;1.52;;;1.42;;
13240;SDS011;6687;47.790;7.322;2023-02-28T19:07:35;1.25;;;1.15;;
13240;SDS011;6687;47.790;7.322;2023-02-28T19:10:02;1.30;;;1.20;;
13240;SDS011;6687;47.790;7.322;2023-02-28T19:12:32;1.20;;;1.10;;
13240;SDS011;6687;47.790;7.322;2023-02-28T19:14:59;2.50;;;1.20;;
13240;SDS011;6687;47.790;7.322;2023-02-28T19:17:26;1.33;;;1.23;;
13240;SDS011;6687;47.790;7.322;2023-02-28T19:19:54;1.30;;;1.20;;
13240;SDS011;6687;47.790;7.322;2023-02-28T19:22:20;1.35;;;1.13;;
13240;SDS011;6687;47.790;7.322;2023-02-28T19:24:48;2.03;;;1.50;;
13240;SDS011;6687;47.790;7.322;2023-02-28T19:27:15;4.18;;;2.97;;
13240;SDS011;6687;47.790;7.322;2023-02-28T19:29:43;5.63;;;3.28;;
13240;SDS011;6687;47.790;7.322;2023-02-28T19:32:10;5.70;;;3.70;;
13240;SDS011;6687;47.790;7.322;2023-02-28T19:34:37;4.50;;;2.75;;
13240;SDS011;6687;47.790;7.322;2023-02-28T19:37:05;1.67;;;1.58;;
13240;SDS011;6687;47.790;7.322;2023-02-28T19:39:31;2.30;;;1.38;;
13240;SDS011;6687;47.790;7.322;2023-02-28T19:42:05;5.20;;;2.28;;
13240;SDS011;6687;47.790;7.322;2023-02-28T19:44:32;2.88;;;2.58;;
13240;SDS011;6687;47.790;7.322;2023-02-28T19:46:58;3.30;;;2.83;;
13240;SDS011;6687;47.790;7.322;2023-02-28T19:49:25;1.65;;;1.27;;
13240;SDS011;6687;47.790;7.322;2023-02-28T19:51:52;1.75;;;1.65;;
13240;SDS011;6687;47.790;7.322;2023-02-28T19:54:20;3.90;;;2.50;;
13240;SDS011;6687;47.790;7.322;2023-02-28T19:56:47;5.20;;;2.70;;
13240;SDS011;6687;47.790;7.322;2023-02-28T19:59:13;5.20;;;3.38;;
13240;SDS011;6687;47.790;7.322;2023-02-28T20:01:40;2.30;;;1.85;;
13240;SDS011;6687;47.790;7.322;2023-02-28T20:04:08;3.53;;;2.17;;
13240;SDS011;6687;47.790;7.322;2023-02-28T20:06:35;2.70;;;2.42;;
13240;SDS011;6687;47.790;7.322;2023-02-28T20:09:02;3.58;;;2.70;;
13240;SDS011;6687;47.790;7.322;2023-02-28T20:11:30;3.42;;;2.55;;
13240;SDS011;6687;47.790;7.322;2023-02-28T20:13:57;2.15;;;1.95;;
13240;SDS011;6687;47.790;7.322;2023-02-28T20:16:24;4.38;;;3.08;;
13240;SDS011;6687;47.790;7.322;2023-02-28T20:18:53;5.22;;;2.67;;
13240;SDS011;6687;47.790;7.322;2023-02-28T20:21:20;4.43;;;2.60;;
13240;SDS011;6687;47.790;7.322;2023-02-28T20:23:47;1.48;;;1.38;;
13240;SDS011;6687;47.790;7.322;2023-02-28T20:26:14;1.58;;;1.48;;
13240;SDS011;6687;47.790;7.322;2023-02-28T20:28:45;2.88;;;2.35;;
13240;SDS011;6687;47.790;7.322;2023-02-28T20:31:13;3.85;;;2.78;;
13240;SDS011;6687;47.790;7.322;2023-02-28T20:33:41;3.03;;;2.67;;
13240;SDS011;6687;47.790;7.322;2023-02-28T20:36:08;3.30;;;1.70;;
13240;SDS011;6687;47.790;7.322;2023-02-28T20:38:36;2.47;;;2.22;;
13240;SDS011;6687;47.790;7.322;2023-02-28T20:41:03;2.08;;;1.45;;
13240;SDS011;6687;47.790;7.322;2023-02-28T20:43:31;3.10;;;2.45;;
13240;SDS011;6687;47.790;7.322;2023-02-28T20:46:02;1.90;;;1.65;;
13240;SDS011;6687;47.790;7.322;2023-02-28T20:48:30;1.80;;;1.70;;
13240;SDS011;6687;47.790;7.322;2023-02-28T20:50:58;2.83;;;2.10;;
13240;SDS011;6687;47.790;7.322;2023-02-28T20:53:26;1.80;;;1.35;;
13240;SDS011;6687;47.790;7.322;2023-02-28T20:55:54;2.35;;;1.33;;
13240;SDS011;6687;47.790;7.322;2023-02-28T20:58:21;1.85;;;1.45;;
13240;SDS011;6687;47.790;7.322;2023-02-28T21:00:49;1.70;;;1.60;;
13240;SDS011;6687;47.790;7.322;2023-02-28T21:03:18;1.35;;;1.25;;
13240;SDS011;6687;47.790;7.322;2023-02-28T21:05:44;1.88;;;1.67;;
13240;SDS011;6687;47.790;7.322;2023-02-28T21:08:11;4.70;;;2.03;;
13240;SDS011;6687;47.790;7.322;2023-02-28T21:10:38;1.20;;;0.93;;
13240;SDS011;6687;47.790;7.322;2023-02-28T21:13:05;1.83;;;1.73;;
13240;SDS011;6687;47.790;7.322;2023-02-28T21:15:35;2.17;;;2.03;;
13240;SDS011;6687;47.790;7.322;2023-02-28T21:18:02;3.60;;;2.50;;
13240;SDS011;6687;47.790;7.322;2023-02-28T21:20:30;2.75;;;1.60;;
13240;SDS011;6687;47.790;7.322;2023-02-28T21:22:57;3.10;;;2.80;;
13240;SDS011;6687;47.790;7.322;2023-02-28T21:25:24;2.08;;;1.50;;
13240;SDS011;6687;47.790;7.322;2023-02-28T21:27:51;2.10;;;1.35;;
13240;SDS011;6687;47.790;7.322;2023-02-28T21:30:19;2.75;;;2.05;;
13240;SDS011;6687;47.790;7.322;2023-02-28T21:32:46;2.20;;;1.45;;
13240;SDS011;6687;47.790;7.322;2023-02-28T21:35:13;2.35;;;1.63;;
13240;SDS011;6687;47.790;7.322;2023-02-28T21:37:41;2.25;;;1.63;;
13240;SDS011;6687;47.790;7.322;2023-02-28T21:40:09;2.28;;;2.08;;
13240;SDS011;6687;47.790;7.322;2023-02-28T21:42:37;1.73;;;1.63;;
13240;SDS011;6687;47.790;7.322;2023-02-28T21:45:04;1.33;;;1.10;;
13240;SDS011;6687;47.790;7.322;2023-02-28T21:47:31;1.33;;;1.23;;
13240;SDS011;6687;47.790;7.322;2023-02-28T21:49:58;1.35;;;1.25;;
13240;SDS011;6687;47.790;7.322;2023-02-28T21:52:24;1.05;;;1.05;;
13240;SDS011;6687;47.790;7.322;2023-02-28T21:54:53;1.23;;;1.23;;